createdAt,value
2018-08-24T00:01:43.291Z,78.73
2018-08-24T00:03:20.896Z,78.80
2018-08-24T00:04:59.621Z,78.67
2018-08-24T00:06:40.188Z,78.81
2018-08-24T00:10:03.608Z,79.19
2018-08-24T00:11:41.839Z,78.71
2018-08-24T00:13:18.750Z,79.02
2018-08-24T00:14:57.009Z,79.27
2018-08-24T00:16:39.944Z,79.35
2018-08-24T00:18:20.093Z,79.57
2018-08-24T00:20:00.118Z,79.87
2018-08-24T00:21:39.384Z,80.38
2018-08-24T00:23:19.448Z,79.97
2018-08-24T00:24:56.056Z,80.36
2018-08-24T00:26:42.820Z,80.25
2018-08-24T00:28:20.548Z,80.27
2018-08-24T00:30:02.709Z,80.47
2018-08-24T00:31:39.519Z,80.73
2018-08-24T00:33:17.075Z,81.02
2018-08-24T00:34:53.038Z,80.68
2018-08-24T00:36:30.590Z,81.52
2018-08-24T00:38:07.165Z,81.29
2018-08-24T00:39:45.718Z,81.77
2018-08-24T00:41:23.930Z,81.71
2018-08-24T00:43:09.273Z,81.72
2018-08-24T00:44:46.590Z,81.65
2018-08-24T00:46:23.940Z,82.35
2018-08-24T00:47:59.706Z,81.82
2018-08-24T00:49:35.630Z,81.88
2018-08-24T00:51:11.436Z,81.91
2018-08-24T00:52:48.403Z,82.03
2018-08-24T00:54:24.185Z,82.08
2018-08-24T00:55:59.901Z,81.65
2018-08-24T00:57:35.951Z,81.53
2018-08-24T00:59:11.801Z,82.13
2018-08-24T01:00:55.807Z,81.63
2018-08-24T01:02:35.095Z,81.89
2018-08-24T01:04:11.800Z,81.79
2018-08-24T01:05:50.229Z,81.21
2018-08-24T01:07:27.459Z,81.06
2018-08-24T01:09:04.294Z,81.79
2018-08-24T01:10:40.076Z,81.56
2018-08-24T01:12:18.580Z,81.15
2018-08-24T01:13:54.730Z,80.59
2018-08-24T01:15:38.731Z,80.94
2018-08-24T01:17:19.697Z,80.76
2018-08-24T01:18:55.430Z,80.44
2018-08-24T01:20:31.596Z,80.41
2018-08-24T01:22:06.866Z,80.32
2018-08-24T01:23:42.305Z,79.88
2018-08-24T01:25:18.469Z,80.29
2018-08-24T01:26:58.760Z,80.16
2018-08-24T01:28:35.352Z,79.74
2018-08-24T01:30:12.543Z,79.43
2018-08-24T01:31:47.772Z,79.97
2018-08-24T01:33:23.976Z,79.57
2018-08-24T01:34:59.738Z,79.56
2018-08-24T01:36:35.253Z,79.58
2018-08-24T01:38:11.218Z,80.34
2018-08-24T01:39:46.577Z,80.69
2018-08-24T01:41:21.986Z,80.30
2018-08-24T01:42:57.463Z,80.36
2018-08-24T01:44:32.683Z,80.03
2018-08-24T01:46:10.944Z,80.43
2018-08-24T01:47:46.093Z,81.20
2018-08-24T01:49:21.325Z,81.25
2018-08-24T01:50:56.760Z,81.28
2018-08-24T01:52:31.819Z,81.18
2018-08-24T01:54:07.219Z,81.75
2018-08-24T01:55:42.524Z,82.49
2018-08-24T01:57:17.953Z,83.25
2018-08-24T01:58:53.169Z,83.40
2018-08-24T02:00:30.049Z,84.08
2018-08-24T02:02:09.693Z,84.11
2018-08-24T02:03:45.655Z,85.04
2018-08-24T02:05:21.770Z,85.48
2018-08-24T02:06:57.159Z,85.96
2018-08-24T02:08:33.392Z,86.05
2018-08-24T02:10:14.546Z,85.98
2018-08-24T02:11:50.553Z,86.23
2018-08-24T02:13:30.730Z,86.90
2018-08-24T02:15:08.899Z,86.66
2018-08-24T02:16:44.776Z,86.77
2018-08-24T02:18:25.279Z,87.10
2018-08-24T02:20:06.406Z,87.60
2018-08-24T02:21:46.399Z,87.57
2018-08-24T02:23:21.689Z,87.83
2018-08-24T02:24:57.223Z,88.44
2018-08-24T02:26:33.052Z,88.04
2018-08-24T02:28:09.118Z,88.29
2018-08-24T02:29:44.966Z,88.98
2018-08-24T02:31:20.445Z,88.52
2018-08-24T02:32:56.051Z,88.81
2018-08-24T02:34:31.289Z,89.05
2018-08-24T02:36:07.000Z,88.85
2018-08-24T02:37:42.823Z,89.10
2018-08-24T02:39:19.430Z,89.60
2018-08-24T02:40:55.046Z,89.40
2018-08-24T02:42:31.262Z,89.80
2018-08-24T02:44:08.686Z,89.71
2018-08-24T02:45:46.662Z,89.71
2018-08-24T02:47:22.656Z,89.37
2018-08-24T02:48:57.997Z,89.59
2018-08-24T02:50:35.199Z,89.62
2018-08-24T02:52:10.421Z,89.99
2018-08-24T02:53:50.666Z,89.30
2018-08-24T02:55:26.648Z,89.14
2018-08-24T02:57:02.048Z,89.31
2018-08-24T02:58:38.112Z,90.03
2018-08-24T03:00:18.733Z,89.64
2018-08-24T03:01:55.371Z,89.40
2018-08-24T03:03:31.293Z,90.14
2018-08-24T03:05:07.328Z,89.49
2018-08-24T03:06:42.587Z,89.30
2018-08-24T03:08:18.426Z,89.53
2018-08-24T03:09:54.143Z,89.87
2018-08-24T03:11:29.560Z,89.32
2018-08-24T03:13:05.143Z,90.17
2018-08-24T03:14:40.468Z,90.24
2018-08-24T03:16:16.043Z,89.90
2018-08-24T03:17:54.466Z,89.63
2018-08-24T03:19:29.996Z,89.70
2018-08-24T03:21:05.494Z,90.28
2018-08-24T03:22:41.198Z,89.84
2018-08-24T03:24:17.004Z,89.97
2018-08-24T03:25:52.285Z,90.71
2018-08-24T03:27:28.786Z,90.68
2018-08-24T03:29:04.026Z,89.94
2018-08-24T03:30:39.667Z,90.05
2018-08-24T03:32:14.671Z,90.42
2018-08-24T03:33:50.502Z,90.51
2018-08-24T03:35:25.711Z,91.29
2018-08-24T03:37:01.065Z,91.32
2018-08-24T03:38:36.900Z,90.35
2018-08-24T03:40:12.094Z,90.52
2018-08-24T03:41:47.364Z,91.02
2018-08-24T03:43:24.029Z,90.60
2018-08-24T03:44:59.210Z,91.57
2018-08-24T03:46:36.801Z,90.78
2018-08-24T03:48:12.786Z,90.62
2018-08-24T03:49:49.704Z,90.95
2018-08-24T03:51:25.485Z,90.98
2018-08-24T03:53:00.906Z,91.92
2018-08-24T03:54:37.500Z,91.87
2018-08-24T03:56:13.409Z,91.65
2018-08-24T03:57:48.733Z,91.81
2018-08-24T03:59:24.868Z,91.56
2018-08-24T04:01:01.395Z,91.94
2018-08-24T04:02:36.677Z,91.53
2018-08-24T04:04:11.834Z,91.92
2018-08-24T04:05:47.911Z,91.07
2018-08-24T04:07:25.532Z,92.35
2018-08-24T04:09:01.523Z,91.41
2018-08-24T04:10:37.892Z,91.71
2018-08-24T04:12:13.503Z,91.76
2018-08-24T04:13:48.900Z,91.07
2018-08-24T04:15:24.318Z,91.79
2018-08-24T04:17:05.089Z,91.51
2018-08-24T04:18:41.693Z,91.68
2018-08-24T04:20:17.083Z,92.52
2018-08-24T04:21:52.749Z,92.63
2018-08-24T04:23:28.256Z,91.52
2018-08-24T04:25:05.505Z,91.11
2018-08-24T04:26:41.581Z,92.28
2018-08-24T04:30:22.741Z,91.84
2018-08-24T04:31:58.426Z,92.38
2018-08-24T04:33:34.747Z,91.95
2018-08-24T04:35:10.838Z,91.83
2018-08-24T04:36:47.137Z,92.15
2018-08-24T04:38:22.299Z,92.25
2018-08-24T04:39:58.086Z,92.37
2018-08-24T04:41:34.291Z,92.31
2018-08-24T04:43:09.806Z,92.61
2018-08-24T04:44:47.011Z,92.12
2018-08-24T04:46:22.817Z,91.99
2018-08-24T04:47:58.181Z,91.81
2018-08-24T04:49:35.464Z,92.19
2018-08-24T04:51:11.151Z,92.40
2018-08-24T04:52:46.614Z,91.47
2018-08-24T04:54:23.725Z,92.51
2018-08-24T04:55:59.110Z,92.50
2018-08-24T04:57:34.517Z,92.55
2018-08-24T04:59:09.780Z,92.78
2018-08-24T05:00:45.051Z,92.28
2018-08-24T05:02:20.809Z,91.75
2018-08-24T05:03:56.344Z,91.77
2018-08-24T05:05:31.886Z,92.16
2018-08-24T05:07:09.885Z,92.54
2018-08-24T05:08:48.298Z,93.16
2018-08-24T05:10:27.875Z,92.79
2018-08-24T05:12:03.630Z,92.19
2018-08-24T05:13:40.104Z,92.44
2018-08-24T05:15:17.715Z,92.41
2018-08-24T05:16:54.535Z,92.51
2018-08-24T05:18:30.808Z,92.52
2018-08-24T05:20:06.398Z,92.83
2018-08-24T05:21:42.084Z,92.86
2018-08-24T05:23:19.502Z,91.99
2018-08-24T05:24:55.463Z,92.80
2018-08-24T05:26:33.692Z,91.79
2018-08-24T05:28:11.963Z,91.60
2018-08-24T05:29:50.176Z,92.82
2018-08-24T05:31:27.379Z,91.37
2018-08-24T05:33:03.690Z,92.28
2018-08-24T05:34:40.133Z,92.10
2018-08-24T05:36:16.107Z,92.08
2018-08-24T05:37:51.983Z,92.79
2018-08-24T05:39:28.687Z,92.03
2018-08-24T05:41:06.861Z,91.67
2018-08-24T05:42:44.747Z,91.27
2018-08-24T05:44:22.859Z,93.00
2018-08-24T05:46:00.150Z,91.92
2018-08-24T05:47:36.465Z,92.16
2018-08-24T05:49:18.993Z,92.65
2018-08-24T05:51:01.508Z,91.66
2018-08-24T05:52:44.162Z,91.95
2018-08-24T05:54:20.001Z,92.43
2018-08-24T05:55:58.009Z,92.20
2018-08-24T05:57:33.425Z,91.80
2018-08-24T05:59:13.314Z,91.88
2018-08-24T06:00:49.596Z,92.45
2018-08-24T06:02:26.616Z,92.90
2018-08-24T06:04:06.344Z,92.59
2018-08-24T06:05:48.767Z,91.86
2018-08-24T06:07:27.039Z,92.52
2018-08-24T06:09:08.370Z,92.19
2018-08-24T06:10:44.455Z,91.55
2018-08-24T06:12:21.768Z,92.04
2018-08-24T06:13:58.528Z,91.83
2018-08-24T06:15:33.850Z,91.60
2018-08-24T06:17:18.332Z,92.03
2018-08-24T06:18:54.584Z,92.02
2018-08-24T06:20:31.087Z,92.05
2018-08-24T06:22:08.500Z,91.55
2018-08-24T06:29:38.111Z,91.43
2018-08-24T06:31:16.816Z,91.99
2018-08-24T06:32:52.112Z,92.31
2018-08-24T06:34:29.668Z,92.56
2018-08-24T06:36:06.192Z,92.12
2018-08-24T06:37:45.246Z,91.92
2018-08-24T06:39:39.129Z,92.03
2018-08-24T06:41:43.463Z,91.61
2018-08-24T06:43:28.058Z,91.81
2018-08-24T06:45:09.168Z,92.12
2018-08-24T06:46:50.250Z,91.94
2018-08-24T06:48:29.338Z,91.99
2018-08-24T06:50:05.455Z,91.37
2018-08-24T06:51:41.346Z,91.86
2018-08-24T06:53:17.161Z,91.11
2018-08-24T06:54:52.741Z,91.76
2018-08-24T06:56:28.847Z,91.31
2018-08-24T06:58:05.695Z,92.04
2018-08-24T06:59:42.891Z,91.47
2018-08-24T07:01:19.868Z,91.92
2018-08-24T07:02:56.596Z,91.24
2018-08-24T07:04:34.543Z,91.16
2018-08-24T07:06:11.836Z,91.66
2018-08-24T07:07:48.503Z,91.31
2018-08-24T07:09:25.855Z,91.31
2018-08-24T07:11:00.836Z,91.56
2018-08-24T07:12:37.215Z,91.20
2018-08-24T07:14:12.566Z,91.06
2018-08-24T07:15:48.505Z,91.26
2018-08-24T07:18:31.349Z,90.19
2018-08-24T07:20:06.953Z,90.13
2018-08-24T07:21:43.105Z,90.05
2018-08-24T07:23:18.544Z,90.57
2018-08-24T07:24:56.255Z,89.92
2018-08-24T07:26:32.103Z,90.67
2018-08-24T07:28:07.730Z,90.54
2018-08-24T07:29:45.384Z,90.13
2018-08-24T07:31:22.803Z,89.66
2018-08-24T07:32:59.485Z,89.62
2018-08-24T07:34:36.135Z,89.71
2018-08-24T07:36:13.206Z,89.82
2018-08-24T07:37:48.863Z,88.99
2018-08-24T07:39:25.645Z,89.06
2018-08-24T07:41:01.411Z,88.84
2018-08-24T07:42:36.814Z,88.44
2018-08-24T07:44:12.972Z,88.53
2018-08-24T07:45:49.218Z,88.92
2018-08-24T07:47:27.026Z,88.36
2018-08-24T07:49:03.590Z,88.43
2018-08-24T07:50:41.783Z,87.86
2018-08-24T07:52:17.045Z,87.67
2018-08-24T07:53:52.557Z,87.90
2018-08-24T07:55:27.982Z,87.97
2018-08-24T07:57:04.376Z,87.99
2018-08-24T07:58:45.072Z,87.47
2018-08-24T08:00:22.882Z,87.96
2018-08-24T08:02:00.136Z,88.15
2018-08-24T08:03:36.113Z,87.48
2018-08-24T08:05:12.662Z,88.07
2018-08-24T08:06:53.115Z,87.19
2018-08-24T08:08:33.576Z,87.94
2018-08-24T08:10:11.264Z,87.01
2018-08-24T08:11:53.554Z,86.85
2018-08-24T08:13:32.386Z,86.36
2018-08-24T08:17:05.234Z,86.83
2018-08-24T08:18:46.705Z,86.41
2018-08-24T08:20:22.939Z,85.96
2018-08-24T08:22:00.901Z,85.71
2018-08-24T08:23:39.854Z,85.43
2018-08-24T08:25:17.534Z,85.38
2018-08-24T08:26:57.881Z,85.41
2018-08-24T08:28:33.351Z,85.74
2018-08-24T08:30:14.281Z,85.31
2018-08-24T08:31:50.531Z,85.15
2018-08-24T08:33:26.112Z,84.76
2018-08-24T08:35:02.756Z,85.07
2018-08-24T08:36:38.990Z,84.50
2018-08-24T08:38:13.964Z,84.94
2018-08-24T08:39:49.333Z,84.60
2018-08-24T08:41:24.590Z,83.69
2018-08-24T08:43:00.645Z,83.84
2018-08-24T08:45:46.873Z,83.93
2018-08-24T08:47:22.440Z,83.66
2018-08-24T08:48:59.145Z,84.00
2018-08-24T08:50:34.507Z,83.55
2018-08-24T08:59:17.549Z,82.54
2018-08-24T09:00:53.263Z,80.60
2018-08-24T09:02:29.350Z,80.54
2018-08-24T09:04:05.380Z,80.08
2018-08-24T09:05:43.777Z,80.87
2018-08-24T09:07:19.276Z,80.12
2018-08-24T09:08:55.455Z,80.37
2018-08-24T09:10:32.544Z,80.08
2018-08-24T09:12:10.426Z,79.97
2018-08-24T09:13:47.695Z,80.22
2018-08-24T09:15:32.430Z,79.46
2018-08-24T09:17:13.756Z,80.30
2018-08-24T09:18:53.913Z,79.87
2018-08-24T09:20:35.158Z,79.38
2018-08-24T09:22:15.379Z,79.88
2018-08-24T09:23:56.089Z,80.01
2018-08-24T09:25:36.966Z,79.27
2018-08-24T09:27:17.506Z,80.02
2018-08-24T09:29:02.748Z,79.27
2018-08-24T09:30:43.245Z,79.27
2018-08-24T09:32:19.100Z,78.76
2018-08-24T09:33:56.734Z,78.10
2018-08-24T09:35:33.680Z,78.37
2018-08-24T09:37:15.830Z,78.28
2018-08-24T09:38:56.156Z,78.31
2018-08-24T09:40:39.551Z,78.64
2018-08-24T09:42:17.944Z,78.83
2018-08-24T09:43:58.797Z,79.23
2018-08-24T09:45:36.183Z,80.35
2018-08-24T09:47:18.467Z,80.81
2018-08-24T09:49:02.805Z,81.49
2018-08-24T09:50:45.286Z,81.75
2018-08-24T09:52:27.363Z,82.17
2018-08-24T09:54:06.384Z,82.56
2018-08-24T09:55:45.317Z,82.24
2018-08-24T09:57:23.169Z,83.25
2018-08-24T09:59:01.198Z,83.42
2018-08-24T10:00:44.096Z,83.76
2018-08-24T10:02:24.994Z,83.91
2018-08-24T10:04:05.265Z,83.97
2018-08-24T10:05:45.477Z,83.30
2018-08-24T10:07:40.104Z,82.69
2018-08-24T10:09:16.981Z,81.85
2018-08-24T10:10:52.389Z,82.12
2018-08-24T10:12:35.938Z,81.55
2018-08-24T10:14:16.034Z,81.72
2018-08-24T10:15:54.552Z,81.36
2018-08-24T10:17:33.496Z,80.35
2018-08-24T10:19:15.954Z,79.50
2018-08-24T10:20:53.499Z,78.98
2018-08-24T10:22:32.470Z,78.61
2018-08-24T10:24:11.405Z,77.74
2018-08-24T10:25:49.890Z,77.60
2018-08-24T10:27:28.117Z,77.20
2018-08-24T10:29:07.506Z,77.49
2018-08-24T10:30:44.871Z,76.47
2018-08-24T10:32:23.318Z,75.93
2018-08-24T10:34:01.916Z,76.03
2018-08-24T10:35:40.693Z,75.88
2018-08-24T10:39:04.511Z,75.17
2018-08-24T10:40:42.495Z,75.03
2018-08-24T10:42:19.786Z,73.77
2018-08-24T10:45:46.513Z,71.80
2018-08-24T10:47:23.688Z,71.55
2018-08-24T10:49:03.016Z,69.50
2018-08-24T10:50:39.711Z,69.72
2018-08-24T10:52:17.488Z,69.67
2018-08-24T10:53:55.195Z,67.93
2018-08-24T10:55:32.859Z,68.39
2018-08-24T10:57:08.074Z,68.66
2018-08-24T10:58:45.300Z,67.21
2018-08-24T11:00:23.265Z,68.07
2018-08-24T11:02:00.704Z,67.76
2018-08-24T11:03:40.848Z,68.39
2018-08-24T11:05:21.717Z,68.40
2018-08-24T11:06:58.019Z,68.09
2018-08-24T11:08:36.184Z,68.54
2018-08-24T11:10:17.433Z,68.37
2018-08-24T11:11:53.709Z,67.90
2018-08-24T11:13:29.264Z,68.96
2018-08-24T11:15:06.538Z,69.50
2018-08-24T11:16:42.628Z,68.39
2018-08-24T11:18:19.244Z,68.54
2018-08-24T11:19:55.112Z,68.00
2018-08-24T11:21:31.957Z,67.26
2018-08-24T11:23:11.731Z,66.14
2018-08-24T11:24:48.114Z,65.98
2018-08-24T11:26:23.155Z,64.44
2018-08-24T11:27:58.461Z,62.49
2018-08-24T11:29:36.596Z,62.12
2018-08-24T11:31:12.521Z,60.95
2018-08-24T11:32:47.707Z,61.24
2018-08-24T11:34:23.273Z,61.77
2018-08-24T11:35:59.239Z,60.61
2018-08-24T11:37:35.364Z,60.85
2018-08-24T11:39:11.730Z,60.22
2018-08-24T11:40:47.623Z,58.94
2018-08-24T11:42:23.281Z,60.32
2018-08-24T11:43:58.472Z,60.73
2018-08-24T11:45:34.018Z,58.60
2018-08-24T11:47:10.223Z,59.52
2018-08-24T11:48:45.873Z,61.27
2018-08-24T11:50:20.967Z,60.36
2018-08-24T11:51:57.693Z,60.44
2018-08-24T11:53:36.420Z,61.17
2018-08-24T11:55:12.368Z,60.89
2018-08-24T11:56:49.485Z,59.04
2018-08-24T11:58:24.732Z,56.83
2018-08-24T12:00:00.137Z,55.95
2018-08-24T12:01:38.620Z,54.95
2018-08-24T12:03:15.766Z,54.65
2018-08-24T12:04:52.284Z,53.57
2018-08-24T12:06:36.892Z,51.21
2018-08-24T12:08:16.498Z,50.16
2018-08-24T12:09:52.377Z,51.29
2018-08-24T12:11:27.748Z,51.58
2018-08-24T12:13:03.113Z,50.87
2018-08-24T12:14:39.481Z,50.46
2018-08-24T12:16:16.755Z,50.21
2018-08-24T12:17:52.814Z,50.20
2018-08-24T12:19:27.977Z,49.49
2018-08-24T12:21:05.035Z,48.04
2018-08-24T12:22:40.464Z,48.04
2018-08-24T12:24:20.021Z,49.73
2018-08-24T12:25:57.518Z,48.72
2018-08-24T12:27:39.467Z,47.90
2018-08-24T12:30:29.925Z,48.50
2018-08-24T12:32:06.714Z,48.38
2018-08-24T12:33:43.627Z,47.31
2018-08-24T12:35:22.201Z,47.65
2018-08-24T12:37:00.643Z,46.32
2018-08-24T12:38:36.012Z,46.83
2018-08-24T12:40:14.404Z,45.69
2018-08-24T12:41:49.814Z,45.87
2018-08-24T12:43:26.640Z,45.67
2018-08-24T12:45:05.040Z,45.86
2018-08-24T12:46:46.622Z,45.60
2018-08-24T12:48:23.701Z,44.60
2018-08-24T12:50:04.454Z,45.26
2018-08-24T12:51:40.388Z,44.70
2018-08-24T12:53:16.320Z,43.65
2018-08-24T12:54:52.160Z,42.58
2018-08-24T12:56:28.063Z,43.85
2018-08-24T12:58:06.618Z,44.42
2018-08-24T12:59:42.819Z,41.07
2018-08-24T13:01:23.566Z,42.70
2018-08-24T13:03:03.575Z,42.77
2018-08-24T13:04:42.010Z,41.20
2018-08-24T13:06:26.331Z,39.88
2018-08-24T13:08:06.248Z,40.29
2018-08-24T13:09:43.108Z,39.14
2018-08-24T13:11:20.700Z,39.52
2018-08-24T13:12:57.103Z,39.00
2018-08-24T13:14:35.649Z,39.26
2018-08-24T13:16:11.434Z,39.43
2018-08-24T13:17:47.333Z,38.43
2018-08-24T13:19:23.384Z,39.23
2018-08-24T13:20:59.221Z,38.86
2018-08-24T13:22:36.222Z,37.66
2018-08-24T13:24:13.409Z,38.49
2018-08-24T13:25:49.518Z,39.10
2018-08-24T13:27:29.720Z,37.43
2018-08-24T13:29:06.250Z,38.59
2018-08-24T13:30:44.373Z,37.04
2018-08-24T13:32:22.332Z,39.77
2018-08-24T13:33:59.993Z,38.44
2018-08-24T13:35:37.063Z,38.04
2018-08-24T13:37:14.574Z,39.27
2018-08-24T13:38:50.850Z,37.87
2018-08-24T13:40:27.957Z,37.90
2018-08-24T13:42:07.701Z,39.00
2018-08-24T13:43:48.284Z,38.66
2018-08-24T13:45:28.866Z,39.57
2018-08-24T13:47:09.323Z,38.92
2018-08-24T13:48:48.448Z,40.25
2018-08-24T13:50:25.130Z,40.22
2018-08-24T13:52:01.453Z,40.42
2018-08-24T13:53:38.454Z,40.08
2018-08-24T13:55:14.845Z,39.89
2018-08-24T13:56:50.453Z,40.69
2018-08-24T13:58:28.472Z,40.65
2018-08-24T14:00:20.669Z,40.40
2018-08-24T14:01:57.213Z,39.63
2018-08-24T14:03:35.271Z,40.26
2018-08-24T14:05:19.168Z,40.71
2018-08-24T14:06:55.913Z,40.46
2018-08-24T14:08:31.643Z,40.52
2018-08-24T14:10:17.496Z,41.33
2018-08-24T14:11:57.021Z,41.79
2018-08-24T14:13:34.945Z,41.62
2018-08-24T14:15:19.352Z,39.66
2018-08-24T14:16:57.786Z,40.85
2018-08-24T14:18:34.249Z,39.39
2018-08-24T14:20:15.011Z,40.41
2018-08-24T14:21:54.953Z,39.56
2018-08-24T14:23:31.730Z,40.70
2018-08-24T14:25:25.682Z,40.27
2018-08-24T14:27:04.144Z,41.03
2018-08-24T14:28:40.933Z,41.67
2018-08-24T14:30:22.414Z,40.55
2018-08-24T14:31:59.936Z,40.77
2018-08-24T14:33:35.885Z,41.62
2018-08-24T14:35:13.737Z,40.88
2018-08-24T14:36:52.337Z,40.26
2018-08-24T14:38:27.795Z,41.27
2018-08-24T14:40:04.225Z,42.46
2018-08-24T14:41:44.502Z,41.32
2018-08-24T14:43:23.421Z,42.56
2018-08-24T14:45:04.331Z,42.71
2018-08-24T14:46:42.302Z,43.47
2018-08-24T14:48:19.652Z,43.92
2018-08-24T14:50:07.785Z,44.57
2018-08-24T14:51:45.421Z,44.71
2018-08-24T14:55:08.003Z,43.81
2018-08-24T14:56:44.034Z,43.78
2018-08-24T14:58:37.171Z,44.03
2018-08-24T15:00:19.233Z,44.66
2018-08-24T15:01:55.772Z,43.68
2018-08-24T15:03:32.267Z,44.96
2018-08-24T15:05:10.369Z,44.78
2018-08-24T15:06:50.105Z,44.95
2018-08-24T15:08:26.001Z,44.83
2018-08-24T15:10:03.125Z,44.61
2018-08-24T15:11:57.040Z,45.45
2018-08-24T15:13:33.981Z,45.92
2018-08-24T15:15:19.048Z,45.22
2018-08-24T15:16:55.584Z,44.28
2018-08-24T15:18:31.269Z,44.67
2018-08-24T15:20:08.517Z,44.44
2018-08-24T15:21:44.919Z,43.70
2018-08-24T15:23:29.304Z,45.89
2018-08-24T15:25:09.853Z,44.87
2018-08-24T15:26:46.501Z,44.55
2018-08-24T15:28:22.782Z,45.44
2018-08-24T15:30:01.170Z,45.22
2018-08-24T15:33:48.188Z,45.54
2018-08-24T15:35:24.895Z,44.57
2018-08-24T15:37:03.855Z,44.57
2018-08-24T15:38:42.075Z,46.15
2018-08-24T15:40:19.407Z,44.78
2018-08-24T15:41:57.436Z,43.94
2018-08-24T15:43:35.188Z,44.08
2018-08-24T15:45:25.267Z,44.67
2018-08-24T15:47:03.069Z,44.66
2018-08-24T15:48:39.293Z,45.90
2018-08-24T15:50:15.273Z,45.20
2018-08-24T15:51:50.701Z,46.48
2018-08-24T15:53:27.351Z,45.87
2018-08-24T15:55:03.349Z,46.19
2018-08-24T15:56:40.969Z,47.01
2018-08-24T15:58:17.208Z,45.80
2018-08-24T15:59:55.967Z,46.22
2018-08-24T16:01:39.619Z,45.77
2018-08-24T16:03:23.019Z,46.10
2018-08-24T16:04:59.693Z,46.18
2018-08-24T16:06:36.442Z,44.85
2018-08-24T16:08:13.469Z,45.56
2018-08-24T16:09:49.822Z,45.66
2018-08-24T16:11:25.051Z,44.77
2018-08-24T16:13:01.636Z,45.50
2018-08-24T16:14:42.662Z,46.24
2018-08-24T16:16:20.566Z,46.86
2018-08-24T16:18:00.673Z,45.25
2018-08-24T16:19:38.084Z,45.17
2018-08-24T16:21:15.209Z,47.04
2018-08-24T16:22:54.132Z,46.46
2018-08-24T16:24:31.572Z,46.79
2018-08-24T16:26:09.688Z,46.20
2018-08-24T16:27:46.699Z,46.41
2018-08-24T16:29:26.432Z,46.78
2018-08-24T16:31:03.865Z,47.22
2018-08-24T16:32:43.708Z,46.37
2018-08-24T16:34:20.402Z,47.83
2018-08-24T16:35:56.228Z,46.88
2018-08-24T16:37:36.343Z,47.53
2018-08-24T16:39:12.225Z,46.64
2018-08-24T16:40:53.343Z,46.23
2018-08-24T16:42:32.420Z,46.64
2018-08-24T16:44:11.212Z,46.36
2018-08-24T16:45:49.741Z,45.39
2018-08-24T16:47:28.951Z,46.12
2018-08-24T16:49:04.901Z,45.37
2018-08-24T16:51:14.927Z,47.25
2018-08-24T16:52:59.469Z,45.49
2018-08-24T16:54:37.671Z,46.46
2018-08-24T16:56:14.367Z,46.58
2018-08-24T16:57:54.917Z,46.80
2018-08-24T16:59:31.942Z,46.24
2018-08-24T17:01:12.408Z,46.30
2018-08-24T17:02:53.313Z,46.95
2018-08-24T17:04:31.619Z,46.71
2018-08-24T17:06:08.302Z,47.81
2018-08-24T17:07:52.350Z,46.72
2018-08-24T17:09:29.201Z,47.93
2018-08-24T17:11:05.257Z,47.50
2018-08-24T17:12:45.435Z,46.89
2018-08-24T17:14:26.352Z,47.61
2018-08-24T17:16:06.822Z,47.63
2018-08-24T17:17:49.573Z,48.10
2018-08-24T17:19:33.593Z,48.16
2018-08-24T17:21:14.781Z,47.80
2018-08-24T17:22:55.626Z,48.64
2018-08-24T17:24:33.325Z,49.33
2018-08-24T17:26:11.868Z,49.23
2018-08-24T17:27:51.307Z,49.32
2018-08-24T17:31:47.557Z,49.33
2018-08-24T17:33:53.501Z,49.84
2018-08-24T17:35:30.373Z,50.30
2018-08-24T17:37:13.689Z,50.30
2018-08-24T17:38:51.492Z,50.92
2018-08-24T17:40:29.027Z,50.58
2018-08-24T17:42:08.199Z,51.06
2018-08-24T17:43:45.908Z,51.60
2018-08-24T17:45:23.882Z,51.96
2018-08-24T17:46:59.030Z,51.93
2018-08-24T17:48:34.394Z,51.95
2018-08-24T17:50:12.404Z,52.33
2018-08-24T17:51:47.654Z,52.25
2018-08-24T17:53:25.471Z,52.74
2018-08-24T17:55:01.456Z,53.34
2018-08-24T17:56:41.100Z,52.63
2018-08-24T17:58:26.642Z,53.37
2018-08-24T18:00:06.500Z,53.77
2018-08-24T18:01:53.775Z,53.07
2018-08-24T18:03:30.533Z,54.38
2018-08-24T18:05:08.641Z,53.67
2018-08-24T18:06:48.515Z,53.80
2018-08-24T18:08:24.832Z,54.94
2018-08-24T18:10:00.008Z,54.01
2018-08-24T18:11:36.241Z,54.97
2018-08-24T18:13:12.041Z,55.00
2018-08-24T18:14:49.173Z,55.09
2018-08-24T18:16:27.258Z,54.46
2018-08-24T18:18:18.307Z,55.10
2018-08-24T18:19:57.670Z,54.74
2018-08-24T18:21:35.682Z,55.16
2018-08-24T18:23:13.344Z,55.07
2018-08-24T18:24:56.420Z,55.44
2018-08-24T18:26:34.719Z,55.74
2018-08-24T18:28:11.580Z,55.75
2018-08-24T18:29:49.129Z,55.74
2018-08-24T18:31:27.618Z,56.25
2018-08-24T18:33:05.684Z,56.52
2018-08-24T18:34:42.922Z,56.78
2018-08-24T18:38:05.851Z,56.38
2018-08-24T18:39:43.624Z,55.61
2018-08-24T18:41:27.539Z,56.17
2018-08-24T18:43:03.560Z,57.01
2018-08-24T18:44:40.852Z,57.22
2018-08-24T18:46:18.636Z,57.42
2018-08-24T18:47:54.276Z,56.91
2018-08-24T18:49:33.119Z,57.50
2018-08-24T18:51:19.221Z,57.37
2018-08-24T18:52:58.104Z,57.36
2018-08-24T18:54:34.928Z,57.43
2018-08-24T18:56:11.044Z,57.81
2018-08-24T18:57:54.438Z,58.06
2018-08-24T18:59:32.044Z,58.16
2018-08-24T19:01:12.413Z,57.92
2018-08-24T19:02:51.650Z,58.10
2018-08-24T19:04:30.050Z,58.94
2018-08-24T19:06:06.187Z,58.29
2018-08-24T19:07:48.857Z,58.09
2018-08-24T19:09:26.770Z,58.55
2018-08-24T19:11:11.243Z,58.06
2018-08-24T19:12:52.863Z,58.25
2018-08-24T19:14:30.843Z,58.69
2018-08-24T19:16:13.962Z,58.60
2018-08-24T19:17:56.661Z,58.94
2018-08-24T19:19:40.146Z,58.73
2018-08-24T19:21:24.731Z,58.88
2018-08-24T19:23:05.547Z,58.39
2018-08-24T19:24:45.144Z,58.65
2018-08-24T19:26:20.934Z,59.69
2018-08-24T19:28:03.715Z,59.15
2018-08-24T19:29:46.597Z,59.01
2018-08-24T19:31:33.311Z,59.00
2018-08-24T19:33:12.699Z,59.66
2018-08-24T19:34:52.482Z,59.66
2018-08-24T19:36:28.767Z,59.66
2018-08-24T19:38:07.257Z,59.86
2018-08-24T19:39:50.682Z,59.75
2018-08-24T19:41:34.596Z,59.57
2018-08-24T19:43:13.278Z,59.95
2018-08-24T19:44:55.187Z,59.13
2018-08-24T19:46:35.883Z,59.30
2018-08-24T19:48:15.893Z,59.53
2018-08-24T19:49:54.644Z,58.61
2018-08-24T19:51:31.593Z,58.68
2018-08-24T19:53:09.419Z,58.19
2018-08-24T19:54:49.002Z,58.15
2018-08-24T19:58:13.701Z,58.37
2018-08-24T19:59:50.369Z,58.29
2018-08-24T20:01:31.389Z,57.83
2018-08-24T20:03:09.294Z,58.48
2018-08-24T20:04:52.599Z,57.84
2018-08-24T20:06:47.694Z,58.46
2018-08-24T20:08:43.792Z,58.81
2018-08-24T20:10:20.997Z,59.64
2018-08-24T20:12:11.208Z,58.47
2018-08-24T20:13:49.765Z,57.83
2018-08-24T20:17:07.616Z,58.18
2018-08-24T20:18:46.017Z,57.48
2018-08-24T20:20:23.356Z,58.11
2018-08-24T20:22:03.704Z,58.04
2018-08-24T20:23:41.009Z,57.96
2018-08-24T20:27:11.552Z,57.96
2018-08-24T20:28:55.605Z,58.12
2018-08-24T20:30:32.222Z,58.54
2018-08-24T20:32:13.905Z,57.54
2018-08-24T20:33:52.814Z,58.09
2018-08-24T20:35:33.472Z,58.23
2018-08-24T20:37:12.515Z,57.68
2018-08-24T20:38:54.704Z,58.18
2018-08-24T20:40:33.456Z,58.82
2018-08-24T20:42:13.477Z,58.79
2018-08-24T20:43:54.835Z,58.61
2018-08-24T20:45:39.730Z,58.60
2018-08-24T20:47:18.608Z,58.46
2018-08-24T20:49:07.340Z,58.53
2018-08-24T20:51:06.391Z,58.21
2018-08-24T20:52:58.458Z,58.54
2018-08-24T20:54:37.541Z,58.88
2018-08-24T20:56:19.564Z,58.67
2018-08-24T20:57:57.056Z,59.35
2018-08-24T20:59:35.389Z,58.86
2018-08-24T21:01:14.386Z,58.22
2018-08-24T21:02:52.879Z,60.37
2018-08-24T21:04:31.430Z,58.91
2018-08-24T21:06:08.620Z,59.04
2018-08-24T21:07:47.736Z,59.66
2018-08-24T21:09:26.770Z,59.44
2018-08-24T21:11:07.317Z,59.51
2018-08-24T21:12:43.397Z,59.46
2018-08-24T21:14:24.487Z,59.77
2018-08-24T21:16:01.379Z,59.85
2018-08-24T21:17:40.900Z,59.97
2018-08-24T21:19:24.710Z,59.71
2018-08-24T21:21:04.618Z,60.09
2018-08-24T21:22:46.188Z,59.86
2018-08-24T21:24:25.562Z,60.50
2018-08-24T21:26:06.581Z,60.38
2018-08-24T21:27:46.762Z,60.61
2018-08-24T21:29:22.476Z,61.40
2018-08-24T21:31:03.352Z,60.47
2018-08-24T21:32:38.854Z,61.38
2018-08-24T21:34:15.383Z,61.02
2018-08-24T21:35:54.297Z,61.24
2018-08-24T21:37:31.338Z,61.68
2018-08-24T21:39:11.649Z,61.36
2018-08-24T21:40:48.096Z,61.81
2018-08-24T21:42:25.826Z,61.95
2018-08-24T21:44:02.646Z,61.15
2018-08-24T21:45:38.775Z,61.80